WetterOnline ( https://www.wetteronline.ch )

Wetter aktuell Straubing

Aktuelles Wetter: Straubing (360m)

6-stündlich | Neueste Meldungen
Ortszeit Temperatur Wetter
So, 15.09. 8:00 13.9° C wolkenlos
So, 15.09. 2:00 14.5° C bewölkt
Sa, 14.09. 20:00 18.6° C wolkenlos
Sa, 14.09. 14:00 22.0° C leicht bewölkt
Sa, 14.09. 8:00 15.5° C wolkig
Sa, 14.09. 2:00 17.3° C bewölkt
Fr, 13.09. 20:00 21.3° C bedeckt
Fr, 13.09. 14:00 22.0° C leicht bewölkt
Ortszeit Temperatur Wetter
So, 15.09. 12:00 19.9° C leicht bewölkt
So, 15.09. 11:50 19.9° C leicht bewölkt
So, 15.09. 11:40 19.7° C leicht bewölkt
So, 15.09. 11:30 19.2° C wolkig
So, 15.09. 11:20 19.2° C wolkig
So, 15.09. 11:10 18.9° C leicht bewölkt
So, 15.09. 11:00 18.5° C wolkenlos
So, 15.09. 10:30 17.4° C wolkenlos
So, 15.09. 10:00 16.7° C wolkenlos
So, 15.09. 9:30 16.2° C wolkenlos
So, 15.09. 9:00 15.7° C wolkenlos
Ortszeit Relative Feuchte Sichtweite
So, 15.09. 8:00 88% 25 km
So, 15.09. 2:00 88% 40 km
Sa, 14.09. 20:00 69% >70 km
Sa, 14.09. 14:00 62% 55 km
Sa, 14.09. 8:00 91% 30 km
Sa, 14.09. 2:00 86% 50 km
Fr, 13.09. 20:00 65% >70 km
Fr, 13.09. 14:00 59% 50 km
Ortszeit Relative Feuchte Sichtweite
So, 15.09. 12:00 67% 45 km
So, 15.09. 11:50 67% -
So, 15.09. 11:40 67% -
So, 15.09. 11:30 69% 50 km
So, 15.09. 11:20 69% -
So, 15.09. 11:10 67% -
So, 15.09. 11:00 69% 45 km
So, 15.09. 10:30 72% 45 km
So, 15.09. 10:00 75% 45 km
So, 15.09. 9:30 75% 65 km
So, 15.09. 9:00 78% 55 km
Ortszeit Niederschlagsmenge Niederschlagsart
So, 15.09. 8:00 0.0 l/m2 in 12 Std. -
So, 15.09. 2:00 0.0 l/m2 in 6 Std. -
Sa, 14.09. 20:00 0.0 l/m2 in 12 Std. -
Sa, 14.09. 14:00 0.0 l/m2 in 6 Std. -
Sa, 14.09. 8:00 0.0 l/m2 in 12 Std. -
Sa, 14.09. 2:00 0.0 l/m2 in 6 Std. -
Fr, 13.09. 20:00 0.0 l/m2 in 12 Std. -
Fr, 13.09. 14:00 0.0 l/m2 in 6 Std. -
Ortszeit Niederschlagsmenge Niederschlagsart
So, 15.09. 12:00 0.0 l/m2 in 1 Std. -
So, 15.09. 11:50 keine Meldung -
So, 15.09. 11:40 keine Meldung -
So, 15.09. 11:30 0.0 l/m2 in 1 Std. -
So, 15.09. 11:20 keine Meldung -
So, 15.09. 11:10 keine Meldung -
So, 15.09. 11:00 0.0 l/m2 in 1 Std. -
So, 15.09. 10:30 0.0 l/m2 in 1 Std. -
So, 15.09. 10:00 0.0 l/m2 in 1 Std. -
So, 15.09. 9:30 0.0 l/m2 in 1 Std. -
So, 15.09. 9:00 0.0 l/m2 in 1 Std. -
Ortszeit Stärke Spitze Richtung
km/h Bft. km/h Grad Sektor
So, 15.09. 8:00 4 1 14 140° SO
So, 15.09. 2:00 9 2 15 120° SO
Sa, 14.09. 20:00 9 2 26 20° N
Sa, 14.09. 14:00 11 2 25 110° O
Sa, 14.09. 8:00 4 1 11 30° NO
Sa, 14.09. 2:00 6 1 11 280° W
Fr, 13.09. 20:00 6 1 22 340° N
Fr, 13.09. 14:00 13 3 26 290° W
Ortszeit Stärke Spitze Richtung
km/h Bft. km/h Grad Sektor
So, 15.09. 12:00 7 2 14 80° O
So, 15.09. 11:50 7 2 - 80° O
So, 15.09. 11:40 7 2 - 80° O
So, 15.09. 11:30 7 2 14 100° O
So, 15.09. 11:20 7 2 - 100° O
So, 15.09. 11:10 7 2 - 90° O
So, 15.09. 11:00 7 2 18 80° O
So, 15.09. 10:30 11 2 18 100° O
So, 15.09. 10:00 14 3 18 110° O
So, 15.09. 9:30 14 3 18 110° O
So, 15.09. 9:00 11 2 18 130° SO
Ortszeit Untergrenze Bedeckung Gattung
total tief tief mittel hoch
So, 15.09. 8:00 - 0/8 0/8 - - -
So, 15.09. 2:00 1320 m 8/8 6/8 - - -
Sa, 14.09. 20:00 - 0/8 0/8 - - -
Sa, 14.09. 14:00 990 m 6/8 1/8 - - -
Sa, 14.09. 8:00 1800 m 6/8 5/8 - - -
Sa, 14.09. 2:00 1290 m 7/8 7/8 - - -
Fr, 13.09. 20:00 1500 m 8/8 8/8 - - -
Fr, 13.09. 14:00 1080 m 3/8 3/8 - - -
Ortszeit Bedeckungsgrad in Achtel und Wolkenuntergrenze
So, 15.09. 12:00 3(12000m)
So, 15.09. 11:50 3(12000m)
So, 15.09. 11:40 6(12000m)
So, 15.09. 11:30 7(12000m)
So, 15.09. 11:20 7(12000m)
So, 15.09. 11:10 6(12000m)
So, 15.09. 11:00 3(12000m)
So, 15.09. 10:30 keine Wolken
So, 15.09. 10:00 keine Wolken
So, 15.09. 9:30 keine Wolken
So, 15.09. 9:00 keine Wolken
Ortszeit Luftdruck NN (hPa) Tendenz (hPa in 3 Std.)
So, 15.09. 8:00 1026 - 0,7
So, 15.09. 2:00 1028 - 0,8
Sa, 14.09. 20:00 1028 - 0,2
Sa, 14.09. 14:00 1029 - 1,2
Sa, 14.09. 8:00 1031 + 0,3
Sa, 14.09. 2:00 1031 - 0,2
Fr, 13.09. 20:00 1030 + 0,1
Fr, 13.09. 14:00 1031 - 0,4
Ortszeit Luftdruck NN (hPa) Tendenz (hPa in 3 Std.)
So, 15.09. 12:00 1025 - 0,5
So, 15.09. 11:50 1025 keine Meldung
So, 15.09. 11:40 1025 keine Meldung
So, 15.09. 11:30 1025 - 0,3
So, 15.09. 11:20 1025 keine Meldung
So, 15.09. 11:10 1026 keine Meldung
So, 15.09. 11:00 1026 - 0,1
So, 15.09. 10:30 1026 + 0,1
So, 15.09. 10:00 1026 + 0,1
So, 15.09. 9:30 1026 0,0
So, 15.09. 9:00 1026 - 0,3
Ortszeit Schneehöhe (cm)
So, 15.09. 8:00 -
So, 15.09. 2:00 -
Sa, 14.09. 20:00 -
Sa, 14.09. 14:00 -
Sa, 14.09. 8:00 -
Sa, 14.09. 2:00 -
Fr, 13.09. 20:00 -
Fr, 13.09. 14:00 -
Ortszeit Schneehöhe (cm)
So, 15.09. 12:00 -
So, 15.09. 11:50 -
So, 15.09. 11:40 -
So, 15.09. 11:30 -
So, 15.09. 11:20 -
So, 15.09. 11:10 -
So, 15.09. 11:00 -
So, 15.09. 10:30 -
So, 15.09. 10:00 -
So, 15.09. 9:30 -
So, 15.09. 9:00 -
Link zu dieser Seite / Seite empfehlen

Das Wetter in ...